createdAt,value
2023-01-18T00:08:30.564Z,6.60
2023-01-18T00:22:30.593Z,6.45
2023-01-18T00:36:30.573Z,5.50
2023-01-18T00:50:30.742Z,5.80
2023-01-18T01:06:30.577Z,5.60
2023-01-18T01:20:30.571Z,5.05
2023-01-18T01:34:30.575Z,4.50
2023-01-18T01:48:30.567Z,4.20
2023-01-18T02:02:30.630Z,4.40
2023-01-18T02:16:30.629Z,3.95
2023-01-18T02:30:30.643Z,4.00
2023-01-18T02:44:30.593Z,3.60
2023-01-18T02:58:30.597Z,3.30
2023-01-18T03:12:30.595Z,2.90
2023-01-18T03:26:30.658Z,3.20
2023-01-18T03:40:30.601Z,3.30
2023-01-18T03:54:30.614Z,2.80
2023-01-18T04:08:30.615Z,2.70
2023-01-18T04:22:30.624Z,2.80
2023-01-18T04:36:30.663Z,2.90
2023-01-18T04:50:30.638Z,2.60
2023-01-18T05:04:30.631Z,2.70
2023-01-18T05:18:30.641Z,2.80
2023-01-18T05:32:30.662Z,3.20
2023-01-18T05:46:30.668Z,3.00
2023-01-18T06:00:30.658Z,3.50
2023-01-18T06:15:30.667Z,4.15
2023-01-18T06:29:30.668Z,5.70
2023-01-18T06:44:30.689Z,7.60
2023-01-18T06:59:30.686Z,7.20
2023-01-18T07:14:30.687Z,7.30
2023-01-18T07:29:30.703Z,8.40
2023-01-18T07:45:30.703Z,8.90
2023-01-18T08:00:30.734Z,7.50
2023-01-18T08:15:30.737Z,6.90
2023-01-18T08:30:30.774Z,7.80
2023-01-18T08:45:30.750Z,6.85
2023-01-18T09:00:30.783Z,6.90
2023-01-18T09:15:30.744Z,6.60
2023-01-18T09:41:35.844Z,6.30
2023-01-18T09:56:37.889Z,5.80
2023-01-18T09:59:44.618Z,5.90
2023-01-18T10:10:57.924Z,5.70
2023-01-18T10:25:58.059Z,5.45
2023-01-18T10:40:58.067Z,5.00
2023-01-18T10:55:58.018Z,5.10
2023-01-18T11:10:58.138Z,5.10
2023-01-18T11:25:58.113Z,7.00
2023-01-18T11:40:58.220Z,6.70
2023-01-18T11:56:22.835Z,7.80
2023-01-18T12:11:26.608Z,8.10
2023-01-18T12:26:26.669Z,8.30
2023-01-18T12:41:26.864Z,8.00
2023-01-18T12:56:26.901Z,6.90
2023-01-18T13:11:27.000Z,8.25
2023-01-18T13:26:27.016Z,8.60
2023-01-18T13:41:27.158Z,8.85
2023-01-18T13:56:27.046Z,9.80
2023-01-18T14:11:27.088Z,8.70
2023-01-18T14:26:27.319Z,8.60
2023-01-18T14:41:27.317Z,7.80
2023-01-18T14:56:27.324Z,14.00
2023-01-18T15:11:27.351Z,14.35
2023-01-18T15:26:27.326Z,21.10
2023-01-18T15:42:27.576Z,16.90
2023-01-18T15:57:27.422Z,15.60
2023-01-18T16:15:27.412Z,15.00
2023-01-18T16:30:27.461Z,16.00
2023-01-18T16:44:27.488Z,13.50
2023-01-18T16:58:27.599Z,12.30
2023-01-18T17:12:27.823Z,10.30
2023-01-18T17:26:27.747Z,10.20
2023-01-18T17:40:38.337Z,11.00
2023-01-18T17:54:27.816Z,10.00
2023-01-18T18:08:27.808Z,8.45
2023-01-18T18:22:27.933Z,8.10
2023-01-18T18:36:28.012Z,8.10
2023-01-18T18:50:27.917Z,7.60
2023-01-18T19:04:27.983Z,7.60
2023-01-18T19:18:28.008Z,8.30
2023-01-18T19:32:28.024Z,6.70
2023-01-18T19:46:29.462Z,7.50
2023-01-18T19:59:28.189Z,6.60
2023-01-18T20:13:28.187Z,7.30
2023-01-18T20:27:28.220Z,6.70
2023-01-18T20:41:28.289Z,6.80
2023-01-18T20:55:28.266Z,7.60
2023-01-18T21:09:28.408Z,6.90
2023-01-18T21:23:28.473Z,8.10
2023-01-18T21:37:28.538Z,8.40
2023-01-18T21:51:28.503Z,7.95
2023-01-18T22:05:28.576Z,8.40
2023-01-18T22:19:28.577Z,8.10
2023-01-18T22:33:28.680Z,8.30
2023-01-18T22:47:28.671Z,9.60
2023-01-18T23:01:28.647Z,11.30
2023-01-18T23:15:28.675Z,10.95
2023-01-18T23:29:28.707Z,11.10
2023-01-18T23:43:28.695Z,8.80
2023-01-18T23:57:28.933Z,8.60
